Charter Quote
Worldwide +44-20-3874-8091 Call
Select Language Lang
SAFETY RELIABILITY EXPERIENCE

Hyakuri Airport (RJAH) - Jet Charter Services

AIRPORT INFORMATION
ICAORJAH
LOCATIONTsuchiura, Japan
FACILITY TYPEAIRPORT
Runway Length (ft) Width (ft) Surface Type Elevation (ft)
21/03 8860 150 CON 104.91803

At Paramount Business Jets you can hire chartered private jets to and from Hyakuri Airport with as little as 4 hours of notice. All flights booked via Paramount Business Jets are operated by certified direct air carriers that meet and exceed the FAA part 135 and 121 protocol or a foreign equivalent safety authority. Furthermore, Paramount Business Jets subscribes to ARGUS for their third party safety checks of operators, aircraft, and crews prior each and every flight to and from Hyakuri Airport and worldwide.

  • Quote a trip using Hyakuri Airport or call us 24/7 - 365 days a year at +44-20-3874-8091.
Questions? Call +44-20-3874-8091

METAR Weather Data at Hyakuri Airport, RJAH

STATIONRJAH
OBSERVEDSun Mar 24, 10:00 UTC
NOWSun Mar 24, 10:44 UTC
AGE44 min ago
WINDNNE at 8 mph
VISIBILITY16 miles
CLOUDSpartly cloudy
TEMP43°F (6°C)
WIND CHILL38°F (3°C)
DEWPT18°F (-8°C)
HUMIDITY36%
BAROMETER1016 hPa (30 in Hg)
METARRJAH 241000Z 02007KT 9999 FEW030 06/M08 Q1016

Call us on +44-20-3874-8091 (24 Hours) to Hire a Private Jet or Get a Quick Quote.

Find Airports Near any Location

Processing
...